Time;durP1;ratioP1;P1;durP2;ratioP2;P2;SDS_P1;SDS_P2;PMS_P1;PMS_P2;Temp;Humidity;BMP_temperature;BMP_pressure;BME280_temperature;BME280_humidity;BME280_pressure;Samples;Min_cycle;Max_cycle;Signal;HPM_P1;HPM_P2
2023/05/02 00:01:04;;;;;;;;;;;;;;;5.97;66.50;100266.13;5064022;28;1784;-81
2023/05/02 00:03:30;;;;;;;;;;;;;;;5.89;66.45;100263.56;5063847;28;1677;-80
2023/05/02 00:05:57;;;;;;;;;;;;;;;5.83;67.05;100259.00;5065769;28;1690;-81
2023/05/02 00:08:23;;;;;;;;;;;;;;;5.84;66.60;100268.69;5047854;28;1867;-81
2023/05/02 00:10:50;;;;;;;;;;;;;;;5.88;66.62;100268.09;5062743;28;1863;-81
2023/05/02 00:13:17;;;;;;;;;;;;;;;5.87;66.54;100266.44;5062334;28;1896;-81
2023/05/02 00:15:43;;;;;;;;;;;;;;;5.85;66.41;100270.31;5063847;28;1983;-81
2023/05/02 00:18:10;;;;;;;;;;;;;;;5.82;66.74;100276.88;5064894;28;1768;-80
2023/05/02 00:20:36;;;;;;;;;;;;;;;5.84;66.50;100282.03;5064853;28;1096;-81
2023/05/02 00:23:03;;;;;;;;;;;;;;;5.82;66.62;100273.38;5063599;28;1921;-81
2023/05/02 00:25:29;;;;;;;;;;;;;;;5.78;66.71;100277.47;5064656;28;2011;-81
2023/05/02 00:27:56;;;;;;;;;;;;;;;5.79;66.43;100285.28;5063362;28;2060;-81
2023/05/02 00:30:22;;;;;;;;;;;;;;;5.80;66.55;100291.47;5063860;28;1689;-81
2023/05/02 00:32:49;;;;;;;;;;;;;;;5.81;66.57;100290.44;5062269;28;1588;-80
2023/05/02 00:35:16;;;;;;;;;;;;;;;5.77;66.47;100299.88;5063215;28;1761;-80
2023/05/02 00:37:42;;;;;;;;;;;;;;;5.77;66.38;100307.91;5063415;28;1981;-81
2023/05/02 00:40:09;;;;;;;;;;;;;;;5.76;66.63;100293.69;5046129;28;1766;-81
2023/05/02 00:42:35;;;;;;;;;;;;;;;5.72;66.72;100300.44;5060949;28;2030;-81
2023/05/02 00:45:03;;;;;;;;;;;;;;;5.70;66.86;100305.97;5063381;28;1686;-81
2023/05/02 00:47:30;;;;;;;;;;;;;;;5.71;66.68;100304.16;5063380;28;1374;-81
2023/05/02 00:49:56;;;;;;;;;;;;;;;5.73;66.47;100311.97;5064459;28;1721;-81
2023/05/02 00:52:23;;;;;;;;;;;;;;;5.71;66.63;100309.50;5064202;28;1732;-82
2023/05/02 00:54:49;;;;;;;;;;;;;;;5.68;66.68;100315.22;5064771;28;1681;-81
2023/05/02 00:57:16;;;;;;;;;;;;;;;5.69;66.47;100311.53;5062831;28;1926;-81
2023/05/02 00:59:42;;;;;;;;;;;;;;;5.67;66.51;100319.72;5062865;28;1674;-81
2023/05/02 01:02:09;;;;;;;;;;;;;;;5.68;66.37;100318.72;5063955;28;1694;-81
2023/05/02 01:04:35;;;;;;;;;;;;;;;5.75;66.39;100325.97;5062017;28;2011;-81
2023/05/02 01:07:02;;;;;;;;;;;;;;;5.72;66.53;100334.38;5063357;28;1701;-81
2023/05/02 01:09:28;;;;;;;;;;;;;;;5.64;66.47;100333.47;5063156;28;1733;-81
2023/05/02 01:11:55;;;;;;;;;;;;;;;5.64;66.67;100333.47;5063485;28;1674;-81
2023/05/02 01:14:21;;;;;;;;;;;;;;;5.62;66.68;100345.41;5061059;28;1731;-81
2023/05/02 01:16:48;;;;;;;;;;;;;;;5.67;66.34;100337.59;5061028;28;1989;-81
2023/05/02 01:19:15;;;;;;;;;;;;;;;5.65;66.43;100353.03;5062819;28;1769;-80
2023/05/02 01:21:41;;;;;;;;;;;;;;;5.60;66.41;100345.56;5065083;28;1499;-81
2023/05/02 01:24:08;;;;;;;;;;;;;;;5.61;66.32;100349.88;5061638;28;1748;-80
2023/05/02 01:26:34;;;;;;;;;;;;;;;5.61;66.25;100349.06;5060255;28;1970;-82
2023/05/02 01:29:01;;;;;;;;;;;;;;;5.59;66.44;100349.28;5062077;28;1602;-81
2023/05/02 01:31:27;;;;;;;;;;;;;;;5.58;66.41;100352.13;5062726;28;1895;-82
2023/05/02 01:33:54;;;;;;;;;;;;;;;5.57;66.35;100370.00;5063213;28;1025;-80
2023/05/02 01:36:21;;;;;;;;;;;;;;;5.57;66.61;100370.00;5062679;28;2095;-80
2023/05/02 01:38:47;;;;;;;;;;;;;;;5.56;66.39;100363.03;5063261;28;1689;-81
2023/05/02 01:41:14;;;;;;;;;;;;;;;5.55;66.37;100366.69;5063092;28;1777;-81
2023/05/02 01:43:41;;;;;;;;;;;;;;;5.54;66.33;100364.22;5041675;28;1904;-80
2023/05/02 01:46:07;;;;;;;;;;;;;;;5.52;66.46;100363.59;5044010;28;1655;-81
2023/05/02 01:48:34;;;;;;;;;;;;;;;5.52;66.55;100368.91;5061830;28;1642;-81
2023/05/02 01:51:00;;;;;;;;;;;;;;;5.52;66.26;100368.91;5063346;28;1745;-79
2023/05/02 01:53:27;;;;;;;;;;;;;;;5.52;66.43;100374.28;5060593;28;1690;-80
2023/05/02 01:55:53;;;;;;;;;;;;;;;5.53;66.29;100373.25;5064711;28;1973;-79
2023/05/02 01:58:20;;;;;;;;;;;;;;;5.51;66.44;100372.63;5061873;28;1755;-80
2023/05/02 02:00:46;;;;;;;;;;;;;;;5.50;66.21;100371.81;5063353;28;2220;-81
2023/05/02 02:03:13;;;;;;;;;;;;;;;5.49;66.46;100385.34;5059651;28;1515;-80
2023/05/02 02:05:39;;;;;;;;;;;;;;;5.48;66.39;100389.84;5063915;28;1555;-81
2023/05/02 02:08:06;;;;;;;;;;;;;;;5.51;66.43;100388.66;5062313;28;1701;-81
2023/05/02 02:10:32;;;;;;;;;;;;;;;5.45;66.47;100391.06;5061599;28;1804;-81
2023/05/02 02:12:59;;;;;;;;;;;;;;;5.45;66.38;100395.56;5060770;28;1833;-81
2023/05/02 02:15:26;;;;;;;;;;;;;;;5.44;66.38;100393.91;5043780;28;2220;-80
2023/05/02 02:17:54;;;;;;;;;;;;;;;5.40;66.55;100398.81;5059741;28;1902;-80
2023/05/02 02:20:20;;;;;;;;;;;;;;;5.43;66.38;100400.28;5063097;28;1757;-82
2023/05/02 02:22:47;;;;;;;;;;;;;;;5.41;66.44;100402.31;5063767;28;1701;-80
2023/05/02 02:25:13;;;;;;;;;;;;;;;5.43;66.35;100405.63;5061823;28;1701;-80
2023/05/02 02:27:40;;;;;;;;;;;;;;;5.45;66.14;100408.94;5061324;28;1820;-81
2023/05/02 02:30:06;;;;;;;;;;;;;;;5.38;66.34;100416.03;5061354;28;2182;-80
2023/05/02 02:32:33;;;;;;;;;;;;;;;5.37;66.54;100415.22;5061396;28;1194;-80
2023/05/02 02:34:59;;;;;;;;;;;;;;;5.36;66.52;100418.91;5063120;28;1583;-80
2023/05/02 02:37:26;;;;;;;;;;;;;;;5.40;66.16;100414.00;5063182;28;2112;-80
2023/05/02 02:39:53;;;;;;;;;;;;;;;5.37;66.11;100423.22;5061291;28;1903;-81
2023/05/02 02:42:19;;;;;;;;;;;;;;;5.34;66.19;100420.94;5058721;28;1836;-81
2023/05/02 02:44:46;;;;;;;;;;;;;;;5.34;66.30;100418.25;5059814;28;1914;-80
2023/05/02 02:47:12;;;;;;;;;;;;;;;5.34;66.17;100418.25;5051049;28;1844;-80
2023/05/02 02:49:39;;;;;;;;;;;;;;;5.38;66.06;100427.56;5059534;28;1773;-81
2023/05/02 02:52:06;;;;;;;;;;;;;;;5.31;66.36;100423.97;5058479;28;1749;-80
2023/05/02 02:54:32;;;;;;;;;;;;;;;5.33;66.17;100427.31;5056686;28;2189;-81
2023/05/02 02:56:59;;;;;;;;;;;;;;;5.33;66.25;100426.47;5045744;28;2346;-81
2023/05/02 02:59:26;;;;;;;;;;;;;;;5.28;66.31;100431.53;5040471;28;2293;-80
2023/05/02 03:01:53;;;;;;;;;;;;;;;5.30;66.28;100430.34;5027747;28;2159;-80
2023/05/02 03:04:20;;;;;;;;;;;;;;;5.27;66.42;100437.91;5044434;28;2376;-79
2023/05/02 03:06:47;;;;;;;;;;;;;;;5.27;66.09;100438.75;5047655;28;2383;-80
2023/05/02 03:09:13;;;;;;;;;;;;;;;5.22;66.28;100441.94;5050301;28;2259;-79
2023/05/02 03:11:40;;;;;;;;;;;;;;;5.23;66.08;100438.28;5046184;28;2240;-81
2023/05/02 03:14:06;;;;;;;;;;;;;;;5.21;66.12;100439.50;5045519;28;2181;-81
2023/05/02 03:16:33;;;;;;;;;;;;;;;5.22;66.23;100446.47;5025893;28;2379;-82
2023/05/02 03:18:59;;;;;;;;;;;;;;;5.20;66.30;100449.31;5050048;28;2296;-81
2023/05/02 03:21:26;;;;;;;;;;;;;;;5.22;66.34;100444.63;5042898;28;2604;-80
2023/05/02 03:23:53;;;;;;;;;;;;;;;5.20;66.16;100448.50;5022840;28;2330;-80
2023/05/02 03:26:20;;;;;;;;;;;;;;;5.18;66.23;100448.69;5046821;28;2130;-81
2023/05/02 03:28:46;;;;;;;;;;;;;;;5.18;66.13;100455.88;5046074;28;2294;-80
2023/05/02 03:31:13;;;;;;;;;;;;;;;5.17;66.32;100464.88;5041368;28;2111;-81
2023/05/02 03:33:39;;;;;;;;;;;;;;;5.18;66.12;100464.72;5042850;28;2347;-80
2023/05/02 03:36:07;;;;;;;;;;;;;;;5.14;66.24;100476.75;5042358;28;2477;-81
2023/05/02 03:38:33;;;;;;;;;;;;;;;5.12;66.11;100478.81;5040901;28;2293;-80
2023/05/02 03:41:00;;;;;;;;;;;;;;;5.12;66.08;100489.50;5045911;28;2317;-81
2023/05/02 03:43:26;;;;;;;;;;;;;;;5.12;66.06;100494.84;5045481;28;2184;-81
2023/05/02 03:45:53;;;;;;;;;;;;;;;5.14;66.23;100494.63;5044202;28;2246;-81
2023/05/02 03:48:19;;;;;;;;;;;;;;;5.11;66.12;100493.16;5030695;28;2130;-80
2023/05/02 03:50:46;;;;;;;;;;;;;;;5.09;66.32;100502.34;5039390;28;2237;-81
2023/05/02 03:53:13;;;;;;;;;;;;;;;5.07;66.21;100501.75;5044053;28;2507;-79
2023/05/02 03:55:39;;;;;;;;;;;;;;;5.07;66.28;100507.06;5046042;28;2056;-80
2023/05/02 03:58:06;;;;;;;;;;;;;;;5.09;65.87;100492.53;5025597;28;2485;-79
2023/05/02 04:00:32;;;;;;;;;;;;;;;5.07;66.07;100499.88;5041472;28;2136;-82
2023/05/02 04:02:59;;;;;;;;;;;;;;;5.04;66.27;100491.44;5043672;28;2370;-82
2023/05/02 04:05:25;;;;;;;;;;;;;;;5.04;66.08;100494.94;5040445;28;2287;-80
2023/05/02 04:07:52;;;;;;;;;;;;;;;5.09;65.93;100491.69;5042502;28;2242;-81
2023/05/02 04:10:18;;;;;;;;;;;;;;;5.05;66.01;100499.25;5041900;28;2244;-80
2023/05/02 04:12:45;;;;;;;;;;;;;;;5.01;66.13;100495.28;5047595;28;2083;-80
2023/05/02 04:15:12;;;;;;;;;;;;;;;5.01;65.91;100493.44;5021998;28;2100;-81
2023/05/02 04:17:38;;;;;;;;;;;;;;;5.03;65.97;100503.94;5012716;28;2102;-79
2023/05/02 04:20:05;;;;;;;;;;;;;;;5.03;65.90;100501.28;5001572;28;2301;-79
2023/05/02 04:22:32;;;;;;;;;;;;;;;4.99;66.00;100506.13;5003513;28;2381;-80
2023/05/02 04:24:58;;;;;;;;;;;;;;;4.98;66.04;100498.34;5006431;28;2149;-81
2023/05/02 04:27:25;;;;;;;;;;;;;;;4.95;66.04;100501.38;5011266;28;2252;-80
2023/05/02 04:29:52;;;;;;;;;;;;;;;4.96;66.05;100495.00;4998489;28;2101;-82
2023/05/02 04:32:18;;;;;;;;;;;;;;;4.96;65.89;100505.69;5000111;28;2217;-81
2023/05/02 04:34:45;;;;;;;;;;;;;;;4.95;65.95;100502.19;5021579;28;2200;-81
2023/05/02 04:37:11;;;;;;;;;;;;;;;4.92;66.05;100499.91;5021206;28;2225;-82
2023/05/02 04:39:38;;;;;;;;;;;;;;;4.94;66.01;100511.22;5009396;28;2186;-81
2023/05/02 04:42:04;;;;;;;;;;;;;;;4.93;66.14;100511.41;5009123;28;2153;-82
2023/05/02 04:44:32;;;;;;;;;;;;;;;4.89;65.99;100515.44;5029960;28;2097;-83
2023/05/02 04:46:58;;;;;;;;;;;;;;;4.91;65.94;100511.59;5018500;28;2738;-82
2023/05/02 04:49:25;;;;;;;;;;;;;;;4.92;65.84;100523.91;5030266;28;2275;-83
2023/05/02 04:51:52;;;;;;;;;;;;;;;4.92;65.76;100523.91;5024029;28;2094;-81
2023/05/02 04:54:19;;;;;;;;;;;;;;;4.89;65.99;100520.78;5037727;28;1704;-82
2023/05/02 04:56:46;;;;;;;;;;;;;;;4.91;65.96;100521.41;5010663;28;2105;-81
2023/05/02 04:59:13;;;;;;;;;;;;;;;4.89;65.93;100539.47;5020739;28;2121;-81
2023/05/02 05:01:39;;;;;;;;;;;;;;;4.88;65.75;100540.47;5015844;28;2242;-83
2023/05/02 05:04:06;;;;;;;;;;;;;;;4.88;65.80;100535.97;5012343;28;2096;-81
2023/05/02 05:06:32;;;;;;;;;;;;;;;4.89;65.85;100539.47;4999020;28;4140;-81
2023/05/02 05:08:59;;;;;;;;;;;;;;;4.88;65.71;100538.66;5013214;28;4995;-81
2023/05/02 05:11:25;;;;;;;;;;;;;;;4.86;65.89;100537.16;5014804;28;4524;-81
2023/05/02 05:13:52;;;;;;;;;;;;;;;4.84;65.78;100534.66;5008926;28;5116;-81
2023/05/02 05:16:19;;;;;;;;;;;;;;;4.85;65.87;100532.81;5056418;28;5275;-82
2023/05/02 05:18:46;;;;;;;;;;;;;;;4.85;65.77;100538.97;5055910;28;5253;-82
2023/05/02 05:21:12;;;;;;;;;;;;;;;4.84;65.87;100539.19;5060708;28;5157;-83
2023/05/02 05:23:44;;;;;;;;;;;;;;;4.85;65.67;100543.50;5060692;28;4682;-82
2023/05/02 05:26:11;;;;;;;;;;;;;;;4.82;65.74;100541.19;5062433;28;4703;-83
2023/05/02 05:28:37;;;;;;;;;;;;;;;4.86;65.68;100547.84;5060378;28;1819;-84
2023/05/02 05:31:04;;;;;;;;;;;;;;;4.84;65.69;100545.34;5070553;28;1914;-83
2023/05/02 05:33:30;;;;;;;;;;;;;;;4.83;65.70;100546.38;5070245;28;1689;-84
2023/05/02 05:35:57;;;;;;;;;;;;;;;4.83;65.62;100551.69;5063920;28;1838;-84
2023/05/02 05:38:23;;;;;;;;;;;;;;;4.83;65.65;100554.38;5050492;28;1902;-85
2023/05/02 05:40:50;;;;;;;;;;;;;;;4.84;65.49;100560.53;5070281;28;1634;-86
2023/05/02 05:43:17;;;;;;;;;;;;;;;4.84;65.35;100550.69;5069922;28;2006;-87
2023/05/02 05:45:44;;;;;;;;;;;;;;;4.81;65.53;100556.38;5051880;28;1848;-85
2023/05/02 05:48:10;;;;;;;;;;;;;;;4.81;65.64;100555.56;5068310;28;4549;-85
2023/05/02 05:50:37;;;;;;;;;;;;;;;4.80;65.62;100557.41;5085267;28;1666;-85
2023/05/02 05:53:04;;;;;;;;;;;;;;;4.80;65.56;100569.94;5067557;28;1690;-86
2023/05/02 05:55:30;;;;;;;;;;;;;;;4.82;65.46;100571.38;5077549;28;1724;-86
2023/05/02 05:57:57;;;;;;;;;;;;;;;4.82;65.71;100573.22;5067762;28;1969;-88
2023/05/02 06:00:23;;;;;;;;;;;;;;;4.77;65.50;100568.44;5065431;28;1769;-86
2023/05/02 06:02:50;;;;;;;;;;;;;;;4.77;65.74;100566.59;5054158;28;1646;-86
2023/05/02 06:05:16;;;;;;;;;;;;;;;4.76;65.62;100574.78;5068369;28;2094;-86
2023/05/02 06:07:43;;;;;;;;;;;;;;;4.76;65.66;100577.44;5067453;28;1459;-84
2023/05/02 06:10:13;;;;;;;;;;;;;;;4.76;65.47;100577.44;5061903;28;1738;-85
2023/05/02 06:12:39;;;;;;;;;;;;;;;4.80;65.36;100581.44;5071747;28;2743;-85
2023/05/02 06:15:06;;;;;;;;;;;;;;;4.75;65.25;100581.94;5066184;28;1548;-85
2023/05/02 06:17:33;;;;;;;;;;;;;;;4.77;65.54;100587.13;5052361;28;1883;-85
2023/05/02 06:19:59;;;;;;;;;;;;;;;4.78;65.45;100591.44;5064114;28;1698;-85
2023/05/02 06:22:26;;;;;;;;;;;;;;;4.76;65.28;100596.97;5068002;28;3686;-85
2023/05/02 06:24:53;;;;;;;;;;;;;;;4.77;65.40;100597.78;5055862;28;4429;-86
2023/05/02 06:27:20;;;;;;;;;;;;;;;4.77;65.30;100598.63;5074982;28;1808;-86
2023/05/02 06:29:46;;;;;;;;;;;;;;;4.78;65.26;100610.94;5068779;28;1712;-86
2023/05/02 06:32:13;;;;;;;;;;;;;;;4.79;65.30;100614.44;5052877;28;1629;-85
2023/05/02 06:34:39;;;;;;;;;;;;;;;4.77;65.36;100608.47;5054956;28;1569;-84
2023/05/02 06:37:06;;;;;;;;;;;;;;;4.79;65.37;100617.09;5046736;28;1914;-87
2023/05/02 06:39:32;;;;;;;;;;;;;;;4.75;65.31;100605.97;5067061;28;1477;-86
2023/05/02 06:41:59;;;;;;;;;;;;;;;4.75;65.27;100616.63;5047066;28;1634;-86
2023/05/02 06:44:26;;;;;;;;;;;;;;;4.84;64.99;100619.25;5070109;28;1420;-85
2023/05/02 06:46:54;;;;;;;;;;;;;;;4.80;65.28;100613.44;5066946;28;1537;-87
2023/05/02 06:49:20;;;;;;;;;;;;;;;4.79;65.11;100622.44;5064885;28;1344;-87
2023/05/02 06:51:47;;;;;;;;;;;;;;;4.76;65.14;100617.47;5062712;28;5515;-85
2023/05/02 06:54:14;;;;;;;;;;;;;;;4.74;65.16;100622.19;5063385;28;5410;-86
2023/05/02 06:56:41;;;;;;;;;;;;;;;4.78;65.22;100626.13;5064644;28;5291;-88
2023/05/02 06:59:07;;;;;;;;;;;;;;;4.78;65.18;100634.13;5062570;28;1918;-86
2023/05/02 07:01:34;;;;;;;;;;;;;;;4.82;65.12;100634.59;5063834;28;1535;-87
2023/05/02 07:04:02;;;;;;;;;;;;;;;4.84;65.00;100637.94;5066523;28;1587;-86
2023/05/02 07:06:29;;;;;;;;;;;;;;;4.78;65.13;100639.47;5066973;28;1775;-86
2023/05/02 07:08:56;;;;;;;;;;;;;;;4.80;65.06;100645.47;5065844;28;4761;-91
2023/05/02 07:11:24;;;;;;;;;;;;;;;4.80;65.00;100649.97;5050023;28;1707;-87
2023/05/02 07:13:50;;;;;;;;;;;;;;;4.79;64.97;100654.47;5058542;28;1191;-89
2023/05/02 07:16:17;;;;;;;;;;;;;;;4.82;64.97;100653.28;5078065;28;1410;-88
2023/05/02 07:18:44;;;;;;;;;;;;;;;4.74;65.20;100656.88;5049159;28;1914;-89
2023/05/02 07:21:11;;;;;;;;;;;;;;;4.80;64.95;100663.31;5061096;28;1039;-88
2023/05/02 07:23:37;;;;;;;;;;;;;;;4.75;65.24;100662.00;5051307;28;1801;-88
2023/05/02 07:26:04;;;;;;;;;;;;;;;4.76;65.05;100660.16;5051662;28;1462;-89
2023/05/02 07:28:30;;;;;;;;;;;;;;;4.76;65.18;100665.50;5064358;28;1224;-89
2023/05/02 07:30:57;;;;;;;;;;;;;;;4.82;65.01;100666.63;5056371;28;1505;-91
2023/05/02 07:33:23;;;;;;;;;;;;;;;4.82;64.90;100661.28;5062546;28;1039;-91
2023/05/02 07:35:50;;;;;;;;;;;;;;;4.78;64.93;100660.81;5071854;28;1543;-90
2023/05/02 07:38:16;;;;;;;;;;;;;;;4.75;65.01;100656.66;5065910;28;1918;-91
2023/05/02 07:40:45;;;;;;;;;;;;;;;4.75;65.03;100659.34;5064854;28;1331;-91
2023/05/02 07:43:11;;;;;;;;;;;;;;;4.76;65.14;100663.69;5067690;28;1203;-90
2023/05/02 07:45:38;;;;;;;;;;;;;;;4.74;65.15;100665.69;5069347;28;1271;-90
2023/05/02 07:48:04;;;;;;;;;;;;;;;4.77;65.00;100665.34;5064871;28;1354;-90
2023/05/02 07:50:31;;;;;;;;;;;;;;;4.75;64.96;100670.00;5058940;28;1593;-90
2023/05/02 07:52:58;;;;;;;;;;;;;;;4.75;65.11;100674.53;5052704;28;1604;-89
2023/05/02 07:55:26;;;;;;;;;;;;;;;4.77;65.06;100673.34;5068535;28;2338;-89
2023/05/02 07:57:53;;;;;;;;;;;;;;;4.78;65.14;100674.97;5066292;28;1977;-91
2023/05/02 08:00:20;;;;;;;;;;;;;;;4.77;65.03;100684.00;5062815;28;1667;-90
2023/05/02 08:02:46;;;;;;;;;;;;;;;4.77;65.05;100676.00;5065417;28;1384;-90
2023/05/02 08:05:13;;;;;;;;;;;;;;;4.77;65.04;100678.66;5067198;28;1601;-91
2023/05/02 08:07:40;;;;;;;;;;;;;;;4.77;65.25;100675.19;5071242;28;1492;-89
2023/05/02 08:10:06;;;;;;;;;;;;;;;4.80;65.08;100682.00;5080851;28;1382;-88
2023/05/02 08:12:33;;;;;;;;;;;;;;;4.81;65.14;100678.31;5076008;28;1485;-89
2023/05/02 08:14:59;;;;;;;;;;;;;;;4.80;65.02;100685.50;5073976;28;1289;-90
2023/05/02 08:17:27;;;;;;;;;;;;;;;4.81;65.07;100694.31;5069103;28;1555;-90
2023/05/02 08:19:54;;;;;;;;;;;;;;;4.82;65.34;100688.78;5071060;28;2180;-88
2023/05/02 08:22:20;;;;;;;;;;;;;;;4.82;65.11;100694.13;5069395;28;1552;-88
2023/05/02 08:24:47;;;;;;;;;;;;;;;4.81;65.03;100700.50;5069486;28;1711;-91
2023/05/02 08:27:14;;;;;;;;;;;;;;;4.83;64.83;100697.66;5073904;28;1061;-89
2023/05/02 08:29:40;;;;;;;;;;;;;;;4.86;64.86;100691.97;5069101;28;1355;-90
2023/05/02 08:32:07;;;;;;;;;;;;;;;4.84;65.13;100692.13;5051576;28;1717;-88
2023/05/02 08:34:34;;;;;;;;;;;;;;;4.85;64.99;100687.59;5073222;28;1478;-90
2023/05/02 08:37:00;;;;;;;;;;;;;;;4.87;64.91;100690.94;5075097;28;1702;-88
2023/05/02 08:39:27;;;;;;;;;;;;;;;4.88;65.03;100685.44;5071653;28;1979;-88
2023/05/02 08:41:53;;;;;;;;;;;;;;;4.88;64.88;100692.59;5061457;28;4321;-87
2023/05/02 08:44:20;;;;;;;;;;;;;;;4.85;64.99;100684.94;5066141;28;1704;-88
2023/05/02 08:46:47;;;;;;;;;;;;;;;4.87;64.99;100693.59;5051654;28;1739;-89
2023/05/02 08:49:13;;;;;;;;;;;;;;;4.88;64.80;100703.25;5050603;28;1742;-87
2023/05/02 08:51:40;;;;;;;;;;;;;;;4.88;65.06;100705.94;5047432;28;1861;-88
2023/05/02 08:54:08;;;;;;;;;;;;;;;4.90;64.81;100702.09;5061610;28;4642;-89
2023/05/02 08:56:35;;;;;;;;;;;;;;;4.90;65.08;100707.41;5063687;28;3890;-88
2023/05/02 08:59:01;;;;;;;;;;;;;;;4.90;64.96;100707.41;5070103;28;2186;-90
2023/05/02 09:01:28;;;;;;;;;;;;;;;4.90;65.09;100703.94;5072925;28;3277;-87
2023/05/02 09:03:57;;;;;;;;;;;;;;;4.92;64.93;100704.59;5066614;28;1705;-88
2023/05/02 09:06:23;;;;;;;;;;;;;;;4.92;64.99;100705.41;5065531;28;1700;-90
2023/05/02 09:08:51;;;;;;;;;;;;;;;4.92;65.08;100716.09;5047661;28;1710;-87
2023/05/02 09:11:17;;;;;;;;;;;;;;;4.93;65.15;100716.91;5064655;28;3101;-88
2023/05/02 09:13:44;;;;;;;;;;;;;;;4.94;65.07;100713.22;5066301;28;1912;-87
2023/05/02 09:16:10;;;;;;;;;;;;;;;4.95;65.16;100715.72;5059821;28;1710;-90
2023/05/02 09:18:37;;;;;;;;;;;;;;;4.93;65.02;100720.41;5063743;28;1906;-90
2023/05/02 09:21:05;;;;;;;;;;;;;;;4.96;65.09;100717.38;5063395;28;5561;-87
2023/05/02 09:23:31;;;;;;;;;;;;;;;4.97;65.14;100713.72;5053432;28;5690;-88
2023/05/02 09:25:58;;;;;;;;;;;;;;;4.97;65.10;100713.72;5068643;28;2172;-91
2023/05/02 09:28:25;;;;;;;;;;;;;;;4.99;65.18;100724.19;5060328;28;4519;-88
2023/05/02 09:30:52;;;;;;;;;;;;;;;5.00;65.19;100718.69;5049170;28;5036;-88
2023/05/02 09:33:18;;;;;;;;;;;;;;;5.01;65.26;100722.19;5051473;28;4387;-89
2023/05/02 09:35:45;;;;;;;;;;;;;;;5.00;65.21;100726.72;5059679;28;1348;-88
2023/05/02 09:38:11;;;;;;;;;;;;;;;5.03;65.28;100728.19;5047334;28;1998;-88
2023/05/02 09:40:38;;;;;;;;;;;;;;;5.04;65.27;100727.19;5050837;28;2448;-88
2023/05/02 09:43:04;;;;;;;;;;;;;;;5.03;65.27;100730.00;5051607;28;2084;-89
2023/05/02 09:45:31;;;;;;;;;;;;;;;5.05;65.36;100734.16;5066591;28;1194;-87
2023/05/02 09:47:57;;;;;;;;;;;;;;;5.06;65.31;100732.31;5071895;28;1348;-90
2023/05/02 09:50:24;;;;;;;;;;;;;;;5.11;65.13;100736.13;5066284;28;1321;-90
2023/05/02 09:52:50;;;;;;;;;;;;;;;5.10;65.33;100722.97;5067528;28;1296;-88
2023/05/02 09:55:17;;;;;;;;;;;;;;;5.24;65.05;100733.69;5047934;28;1222;-90
2023/05/02 09:57:44;;;;;;;;;;;;;;;5.14;65.24;100732.25;5070264;28;1015;-89
2023/05/02 10:00:10;;;;;;;;;;;;;;;5.13;65.31;100727.94;5060597;28;4790;-87
2023/05/02 10:02:39;;;;;;;;;;;;;;;5.19;65.28;100735.22;5041585;28;4965;-87
2023/05/02 10:05:05;;;;;;;;;;;;;;;5.25;64.81;100729.16;5056159;28;1355;-87
2023/05/02 10:07:32;;;;;;;;;;;;;;;5.34;64.73;100733.41;5067074;28;5062;-86
2023/05/02 10:09:58;;;;;;;;;;;;;;;5.39;64.36;100731.03;5070357;28;1524;-88
2023/05/02 10:12:25;;;;;;;;;;;;;;;5.24;65.09;100731.00;5068336;28;5092;-88
2023/05/02 10:14:52;;;;;;;;;;;;;;;5.33;64.76;100737.09;5070447;28;4394;-87
2023/05/02 10:17:18;;;;;;;;;;;;;;;5.32;65.08;100729.25;5043179;28;4970;-86
2023/05/02 10:19:45;;;;;;;;;;;;;;;5.24;65.43;100732.84;5070200;28;2269;-87
2023/05/02 10:22:12;;;;;;;;;;;;;;;5.20;65.36;100736.88;5066959;28;2138;-86
2023/05/02 10:24:39;;;;;;;;;;;;;;;5.19;65.36;100736.06;5066845;28;1701;-87
2023/05/02 10:27:05;;;;;;;;;;;;;;;5.20;65.55;100731.53;5063354;28;2201;-87
2023/05/02 10:29:32;;;;;;;;;;;;;;;5.21;65.44;100736.72;5063219;28;1747;-88
2023/05/02 10:31:58;;;;;;;;;;;;;;;5.21;65.57;100731.38;5073817;28;1721;-87
2023/05/02 10:34:25;;;;;;;;;;;;;;;5.29;64.81;100733.13;5067426;28;2254;-87
2023/05/02 10:36:51;;;;;;;;;;;;;;;5.26;65.05;100738.81;5063267;28;2173;-86
2023/05/02 10:39:23;;;;;;;;;;;;;;;5.25;65.38;100742.50;5066724;28;1976;-86
2023/05/02 10:41:49;;;;;;;;;;;;;;;5.26;65.29;100741.50;5047899;28;2091;-88
2023/05/02 10:44:18;;;;;;;;;;;;;;;5.25;65.07;100739.84;5051830;28;2308;-88
2023/05/02 10:46:44;;;;;;;;;;;;;;;5.26;65.16;100741.50;5062683;28;4880;-89
2023/05/02 10:49:11;;;;;;;;;;;;;;;5.29;65.38;100735.78;5045079;28;4779;-88
2023/05/02 10:51:38;;;;;;;;;;;;;;;5.30;65.40;100740.16;5061278;28;1764;-90
2023/05/02 10:54:04;;;;;;;;;;;;;;;5.32;65.52;100750.63;5053392;28;1750;-87
2023/05/02 10:56:35;;;;;;;;;;;;;;;5.32;65.78;100748.78;5061184;28;1802;-90
2023/05/02 10:59:17;;;;;;;;;;;;;;;5.33;65.78;100745.13;5046901;28;2170;-89
2023/05/02 11:01:44;;;;;;;;;;;;;;;5.35;65.88;100742.25;5065033;28;1745;-88
2023/05/02 11:04:11;;;;;;;;;;;;;;;5.36;65.84;100747.44;5066100;28;2096;-87
2023/05/02 11:06:38;;;;;;;;;;;;;;;5.37;65.61;100753.59;5063750;28;2180;-88
2023/05/02 11:09:04;;;;;;;;;;;;;;;5.37;65.83;100758.94;5047361;28;1802;-87
2023/05/02 11:11:31;;;;;;;;;;;;;;;5.39;66.04;100756.94;5065508;28;2315;-87
2023/05/02 11:13:58;;;;;;;;;;;;;;;5.41;65.99;100753.06;5059284;28;2053;-89
2023/05/02 11:16:24;;;;;;;;;;;;;;;5.43;65.86;100750.19;5046697;28;1834;-87
2023/05/02 11:18:51;;;;;;;;;;;;;;;5.45;66.22;100754.34;5068498;28;1951;-87
2023/05/02 11:21:17;;;;;;;;;;;;;;;5.45;66.22;100759.69;5064200;28;1930;-87
2023/05/02 11:23:45;;;;;;;;;;;;;;;5.45;65.97;100757.03;5050008;28;1816;-89
2023/05/02 11:26:12;;;;;;;;;;;;;;;5.48;66.05;100755.84;5059429;28;1904;-89
2023/05/02 11:28:39;;;;;;;;;;;;;;;5.48;65.92;100755.84;5064848;28;1963;-87
2023/05/02 11:31:05;;;;;;;;;;;;;;;5.50;65.85;100753.81;5059831;28;1721;-87
2023/05/02 11:33:32;;;;;;;;;;;;;;;5.52;65.38;100751.78;5049042;28;1816;-88
2023/05/02 11:35:58;;;;;;;;;;;;;;;5.53;65.86;100748.13;5056082;28;1854;-89
2023/05/02 11:38:25;;;;;;;;;;;;;;;5.54;65.49;100748.94;5061855;28;2142;-89
2023/05/02 11:40:52;;;;;;;;;;;;;;;5.55;65.66;100747.91;5045483;28;2231;-89
2023/05/02 11:43:20;;;;;;;;;;;;;;;5.56;65.88;100750.41;5047975;28;2061;-89
2023/05/02 11:45:46;;;;;;;;;;;;;;;5.57;65.51;100754.75;5060833;28;1705;-87
2023/05/02 11:48:13;;;;;;;;;;;;;;;5.59;65.44;100746.53;5065220;28;1851;-88
2023/05/02 11:50:40;;;;;;;;;;;;;;;5.60;65.54;100746.38;5053305;28;2006;-89
2023/05/02 11:53:06;;;;;;;;;;;;;;;5.61;65.55;100753.34;5053227;28;1707;-89
2023/05/02 11:55:33;;;;;;;;;;;;;;;5.63;65.71;100753.19;5048710;28;1775;-90
2023/05/02 11:58:00;;;;;;;;;;;;;;;5.65;65.79;100748.50;5055647;28;2206;-90
2023/05/02 12:00:26;;;;;;;;;;;;;;;5.66;65.86;100758.16;5045462;28;1983;-90
2023/05/02 12:02:53;;;;;;;;;;;;;;;5.66;65.37;100750.97;5066098;28;1784;-89
2023/05/02 12:05:20;;;;;;;;;;;;;;;5.66;65.81;100750.97;5049131;28;1802;-90
2023/05/02 12:07:47;;;;;;;;;;;;;;;5.67;65.83;100760.63;5049740;28;5062;-90
2023/05/02 12:10:14;;;;;;;;;;;;;;;5.70;65.65;100757.59;5049970;28;4931;-89
2023/05/02 12:12:41;;;;;;;;;;;;;;;5.72;66.01;100759.28;5064068;28;1759;-89
2023/05/02 12:15:07;;;;;;;;;;;;;;;5.74;65.95;100757.28;5067066;28;4853;-90
2023/05/02 12:17:34;;;;;;;;;;;;;;;5.74;65.96;100757.28;5048578;28;1972;-89
2023/05/02 12:20:01;;;;;;;;;;;;;;;5.74;65.64;100757.28;5053461;28;1910;-90
2023/05/02 12:22:28;;;;;;;;;;;;;;;5.77;65.71;100767.59;5054184;28;4927;-90
2023/05/02 12:24:55;;;;;;;;;;;;;;;5.78;65.89;100761.22;5051169;28;4720;-90
2023/05/02 12:27:21;;;;;;;;;;;;;;;5.79;66.05;100758.34;5065736;28;2321;-89
2023/05/02 12:29:48;;;;;;;;;;;;;;;5.81;65.91;100760.84;5069108;28;1771;-89
2023/05/02 12:32:15;;;;;;;;;;;;;;;5.80;65.60;100770.72;5068971;28;2091;-89
2023/05/02 12:34:41;;;;;;;;;;;;;;;5.81;65.27;100774.22;5066093;28;1759;-90
2023/05/02 12:37:08;;;;;;;;;;;;;;;5.83;65.67;100770.34;5066069;28;2873;-89
2023/05/02 12:39:34;;;;;;;;;;;;;;;5.86;66.26;100772.66;5064886;28;2162;-89
2023/05/02 12:42:02;;;;;;;;;;;;;;;5.86;65.76;100779.84;5066435;28;3400;-90
2023/05/02 12:44:28;;;;;;;;;;;;;;;5.85;65.41;100781.69;5050570;28;2036;-90
2023/05/02 12:46:55;;;;;;;;;;;;;;;5.86;65.19;100780.69;5050257;28;2246;-90
2023/05/02 12:49:21;;;;;;;;;;;;;;;5.86;64.64;100788.69;5052483;28;1723;-90
2023/05/02 12:51:48;;;;;;;;;;;;;;;5.91;65.51;100780.97;5066641;28;2187;-90
2023/05/02 12:54:14;;;;;;;;;;;;;;;5.92;65.93;100789.81;5064481;28;1977;-90